sensor_id;sensor_type;location;lat;lon;timestamp;P1;durP1;ratioP1;P2;durP2;ratioP2
16824;SDS011;8529;48.108;-1.706;2023-02-24T00:00:27;25.20;;;14.88;;
16824;SDS011;8529;48.108;-1.706;2023-02-24T00:02:58;29.57;;;16.27;;
16824;SDS011;8529;48.108;-1.706;2023-02-24T00:05:31;29.57;;;17.03;;
16824;SDS011;8529;48.108;-1.706;2023-02-24T00:08:03;30.45;;;16.55;;
16824;SDS011;8529;48.108;-1.706;2023-02-24T00:10:30;26.80;;;14.47;;
16824;SDS011;8529;48.108;-1.706;2023-02-24T00:12:59;22.05;;;12.65;;
16824;SDS011;8529;48.108;-1.706;2023-02-24T00:15:28;23.03;;;12.07;;
16824;SDS011;8529;48.108;-1.706;2023-02-24T00:17:55;23.13;;;12.40;;
16824;SDS011;8529;48.108;-1.706;2023-02-24T00:20:31;24.40;;;12.77;;
16824;SDS011;8529;48.108;-1.706;2023-02-24T00:22:59;23.37;;;12.60;;
16824;SDS011;8529;48.108;-1.706;2023-02-24T00:25:29;25.33;;;13.03;;
16824;SDS011;8529;48.108;-1.706;2023-02-24T00:28:05;21.50;;;11.10;;
16824;SDS011;8529;48.108;-1.706;2023-02-24T00:30:38;22.73;;;11.80;;
16824;SDS011;8529;48.108;-1.706;2023-02-24T00:33:12;25.80;;;12.47;;
16824;SDS011;8529;48.108;-1.706;2023-02-24T00:35:40;23.30;;;12.10;;
16824;SDS011;8529;48.108;-1.706;2023-02-24T00:38:11;22.40;;;11.70;;
16824;SDS011;8529;48.108;-1.706;2023-02-24T00:40:43;23.33;;;11.80;;
16824;SDS011;8529;48.108;-1.706;2023-02-24T00:43:11;20.90;;;11.50;;
16824;SDS011;8529;48.108;-1.706;2023-02-24T00:45:38;21.50;;;11.60;;
16824;SDS011;8529;48.108;-1.706;2023-02-24T00:48:05;23.50;;;11.97;;
16824;SDS011;8529;48.108;-1.706;2023-02-24T00:50:35;22.07;;;11.17;;
16824;SDS011;8529;48.108;-1.706;2023-02-24T00:53:03;21.23;;;11.50;;
16824;SDS011;8529;48.108;-1.706;2023-02-24T00:55:31;22.30;;;11.13;;
16824;SDS011;8529;48.108;-1.706;2023-02-24T00:58:01;22.07;;;11.23;;
16824;SDS011;8529;48.108;-1.706;2023-02-24T01:00:32;23.93;;;12.33;;
16824;SDS011;8529;48.108;-1.706;2023-02-24T01:03:01;19.93;;;10.83;;
16824;SDS011;8529;48.108;-1.706;2023-02-24T01:05:28;22.20;;;12.18;;
16824;SDS011;8529;48.108;-1.706;2023-02-24T01:07:56;24.52;;;12.27;;
16824;SDS011;8529;48.108;-1.706;2023-02-24T01:10:23;24.87;;;12.53;;
16824;SDS011;8529;48.108;-1.706;2023-02-24T01:12:52;25.00;;;12.50;;
16824;SDS011;8529;48.108;-1.706;2023-02-24T01:15:19;26.80;;;14.27;;
16824;SDS011;8529;48.108;-1.706;2023-02-24T01:17:48;31.02;;;13.82;;
16824;SDS011;8529;48.108;-1.706;2023-02-24T01:20:16;30.27;;;14.40;;
16824;SDS011;8529;48.108;-1.706;2023-02-24T01:22:47;27.63;;;13.47;;
16824;SDS011;8529;48.108;-1.706;2023-02-24T01:25:17;29.10;;;13.70;;
16824;SDS011;8529;48.108;-1.706;2023-02-24T01:27:46;32.60;;;15.27;;
16824;SDS011;8529;48.108;-1.706;2023-02-24T01:30:13;32.33;;;14.77;;
16824;SDS011;8529;48.108;-1.706;2023-02-24T01:32:41;29.93;;;13.83;;
16824;SDS011;8529;48.108;-1.706;2023-02-24T01:35:11;31.83;;;14.07;;
16824;SDS011;8529;48.108;-1.706;2023-02-24T01:37:39;33.93;;;15.50;;
16824;SDS011;8529;48.108;-1.706;2023-02-24T01:40:09;33.50;;;16.15;;
16824;SDS011;8529;48.108;-1.706;2023-02-24T01:42:42;35.20;;;15.10;;
16824;SDS011;8529;48.108;-1.706;2023-02-24T01:45:15;34.60;;;14.73;;
16824;SDS011;8529;48.108;-1.706;2023-02-24T01:47:48;32.33;;;14.57;;
16824;SDS011;8529;48.108;-1.706;2023-02-24T01:50:19;36.33;;;16.00;;
16824;SDS011;8529;48.108;-1.706;2023-02-24T01:52:50;39.77;;;16.20;;
16824;SDS011;8529;48.108;-1.706;2023-02-24T01:55:20;31.50;;;15.77;;
16824;SDS011;8529;48.108;-1.706;2023-02-24T01:57:53;36.23;;;16.40;;
16824;SDS011;8529;48.108;-1.706;2023-02-24T02:00:23;35.10;;;15.80;;
16824;SDS011;8529;48.108;-1.706;2023-02-24T02:03:04;35.00;;;16.27;;
16824;SDS011;8529;48.108;-1.706;2023-02-24T02:05:38;37.08;;;16.35;;
16824;SDS011;8529;48.108;-1.706;2023-02-24T02:08:06;36.10;;;16.33;;
16824;SDS011;8529;48.108;-1.706;2023-02-24T02:10:35;33.38;;;14.48;;
16824;SDS011;8529;48.108;-1.706;2023-02-24T02:13:03;35.50;;;15.43;;
16824;SDS011;8529;48.108;-1.706;2023-02-24T02:15:31;33.42;;;16.25;;
16824;SDS011;8529;48.108;-1.706;2023-02-24T02:18:09;33.03;;;14.88;;
16824;SDS011;8529;48.108;-1.706;2023-02-24T02:26:34;38.20;;;16.47;;
16824;SDS011;8529;48.108;-1.706;2023-02-24T02:29:38;39.53;;;16.17;;
16824;SDS011;8529;48.108;-1.706;2023-02-24T02:32:37;34.70;;;16.00;;
16824;SDS011;8529;48.108;-1.706;2023-02-24T02:35:17;37.15;;;16.40;;
16824;SDS011;8529;48.108;-1.706;2023-02-24T02:37:51;35.37;;;16.03;;
16824;SDS011;8529;48.108;-1.706;2023-02-24T02:40:28;38.63;;;18.10;;
16824;SDS011;8529;48.108;-1.706;2023-02-24T02:43:02;41.80;;;17.70;;
16824;SDS011;8529;48.108;-1.706;2023-02-24T02:45:36;39.63;;;18.43;;
16824;SDS011;8529;48.108;-1.706;2023-02-24T02:48:12;44.03;;;19.00;;
16824;SDS011;8529;48.108;-1.706;2023-02-24T02:50:46;39.78;;;18.63;;
16824;SDS011;8529;48.108;-1.706;2023-02-24T02:53:17;45.00;;;19.83;;
16824;SDS011;8529;48.108;-1.706;2023-02-24T02:55:52;42.67;;;19.33;;
16824;SDS011;8529;48.108;-1.706;2023-02-24T02:58:23;45.17;;;19.17;;
16824;SDS011;8529;48.108;-1.706;2023-02-24T03:00:55;42.25;;;19.08;;
16824;SDS011;8529;48.108;-1.706;2023-02-24T03:03:27;44.33;;;19.95;;
16824;SDS011;8529;48.108;-1.706;2023-02-24T03:05:59;40.83;;;19.20;;
16824;SDS011;8529;48.108;-1.706;2023-02-24T03:08:30;44.27;;;18.73;;
16824;SDS011;8529;48.108;-1.706;2023-02-24T03:11:02;46.90;;;19.60;;
16824;SDS011;8529;48.108;-1.706;2023-02-24T03:13:33;44.88;;;20.10;;
16824;SDS011;8529;48.108;-1.706;2023-02-24T03:16:05;43.92;;;20.65;;
16824;SDS011;8529;48.108;-1.706;2023-02-24T03:18:36;45.58;;;20.83;;
16824;SDS011;8529;48.108;-1.706;2023-02-24T03:21:07;42.28;;;19.55;;
16824;SDS011;8529;48.108;-1.706;2023-02-24T03:23:39;46.38;;;20.35;;
16824;SDS011;8529;48.108;-1.706;2023-02-24T03:26:10;38.17;;;17.48;;
16824;SDS011;8529;48.108;-1.706;2023-02-24T03:28:44;45.00;;;19.80;;
16824;SDS011;8529;48.108;-1.706;2023-02-24T03:31:19;39.83;;;19.00;;
16824;SDS011;8529;48.108;-1.706;2023-02-24T03:33:54;43.30;;;20.10;;
16824;SDS011;8529;48.108;-1.706;2023-02-24T03:36:29;43.37;;;19.13;;
16824;SDS011;8529;48.108;-1.706;2023-02-24T03:38:57;46.70;;;19.63;;
16824;SDS011;8529;48.108;-1.706;2023-02-24T03:41:26;39.90;;;18.10;;
16824;SDS011;8529;48.108;-1.706;2023-02-24T03:43:56;46.37;;;19.07;;
16824;SDS011;8529;48.108;-1.706;2023-02-24T03:46:25;46.25;;;19.25;;
16824;SDS011;8529;48.108;-1.706;2023-02-24T03:48:54;40.50;;;17.47;;
16824;SDS011;8529;48.108;-1.706;2023-02-24T03:51:29;38.42;;;17.65;;
16824;SDS011;8529;48.108;-1.706;2023-02-24T03:54:01;41.97;;;17.70;;
16824;SDS011;8529;48.108;-1.706;2023-02-24T03:56:37;42.10;;;18.95;;
16824;SDS011;8529;48.108;-1.706;2023-02-24T03:59:16;44.03;;;19.03;;
16824;SDS011;8529;48.108;-1.706;2023-02-24T04:01:55;38.13;;;17.97;;
16824;SDS011;8529;48.108;-1.706;2023-02-24T04:04:30;45.53;;;17.57;;
16824;SDS011;8529;48.108;-1.706;2023-02-24T04:07:04;44.87;;;19.73;;
16824;SDS011;8529;48.108;-1.706;2023-02-24T04:09:38;45.37;;;19.80;;
16824;SDS011;8529;48.108;-1.706;2023-02-24T04:12:08;47.63;;;18.73;;
16824;SDS011;8529;48.108;-1.706;2023-02-24T04:14:45;41.13;;;17.67;;
16824;SDS011;8529;48.108;-1.706;2023-02-24T04:17:18;44.67;;;20.10;;
16824;SDS011;8529;48.108;-1.706;2023-02-24T04:19:49;41.72;;;19.30;;
16824;SDS011;8529;48.108;-1.706;2023-02-24T04:22:21;46.28;;;20.40;;
16824;SDS011;8529;48.108;-1.706;2023-02-24T04:24:51;41.57;;;18.23;;
16824;SDS011;8529;48.108;-1.706;2023-02-24T04:27:20;45.83;;;20.13;;
16824;SDS011;8529;48.108;-1.706;2023-02-24T04:29:50;47.07;;;20.43;;
16824;SDS011;8529;48.108;-1.706;2023-02-24T04:32:20;42.53;;;19.40;;
16824;SDS011;8529;48.108;-1.706;2023-02-24T04:34:50;42.17;;;18.47;;
16824;SDS011;8529;48.108;-1.706;2023-02-24T04:37:17;38.63;;;18.13;;
16824;SDS011;8529;48.108;-1.706;2023-02-24T04:39:48;37.13;;;18.43;;
16824;SDS011;8529;48.108;-1.706;2023-02-24T04:42:16;41.13;;;18.80;;
16824;SDS011;8529;48.108;-1.706;2023-02-24T04:44:46;37.23;;;18.03;;
16824;SDS011;8529;48.108;-1.706;2023-02-24T04:47:13;38.23;;;18.67;;
16824;SDS011;8529;48.108;-1.706;2023-02-24T04:49:40;43.60;;;18.23;;
16824;SDS011;8529;48.108;-1.706;2023-02-24T04:52:08;36.57;;;17.50;;
16824;SDS011;8529;48.108;-1.706;2023-02-24T04:54:36;39.93;;;17.67;;
16824;SDS011;8529;48.108;-1.706;2023-02-24T04:57:05;39.27;;;17.37;;
16824;SDS011;8529;48.108;-1.706;2023-02-24T04:59:34;32.90;;;16.20;;
16824;SDS011;8529;48.108;-1.706;2023-02-24T05:02:02;41.93;;;18.20;;
16824;SDS011;8529;48.108;-1.706;2023-02-24T05:04:29;39.50;;;18.67;;
16824;SDS011;8529;48.108;-1.706;2023-02-24T05:07:02;37.78;;;17.50;;
16824;SDS011;8529;48.108;-1.706;2023-02-24T05:09:29;38.45;;;17.83;;
16824;SDS011;8529;48.108;-1.706;2023-02-24T05:11:56;35.93;;;16.67;;
16824;SDS011;8529;48.108;-1.706;2023-02-24T05:14:25;35.70;;;17.47;;
16824;SDS011;8529;48.108;-1.706;2023-02-24T05:16:52;39.83;;;18.10;;
16824;SDS011;8529;48.108;-1.706;2023-02-24T05:19:24;40.20;;;18.60;;
16824;SDS011;8529;48.108;-1.706;2023-02-24T05:22:08;33.67;;;15.47;;
16824;SDS011;8529;48.108;-1.706;2023-02-24T05:24:38;38.70;;;17.15;;
16824;SDS011;8529;48.108;-1.706;2023-02-24T05:27:06;33.00;;;17.40;;
16824;SDS011;8529;48.108;-1.706;2023-02-24T05:29:34;36.10;;;16.17;;
16824;SDS011;8529;48.108;-1.706;2023-02-24T05:32:02;29.83;;;14.50;;
16824;SDS011;8529;48.108;-1.706;2023-02-24T05:34:30;32.50;;;16.13;;
16824;SDS011;8529;48.108;-1.706;2023-02-24T05:36:59;31.43;;;15.73;;
16824;SDS011;8529;48.108;-1.706;2023-02-24T05:39:34;35.20;;;15.77;;
16824;SDS011;8529;48.108;-1.706;2023-02-24T05:42:01;34.03;;;16.70;;
16824;SDS011;8529;48.108;-1.706;2023-02-24T05:44:31;32.03;;;14.97;;
16824;SDS011;8529;48.108;-1.706;2023-02-24T05:47:01;32.07;;;15.13;;
16824;SDS011;8529;48.108;-1.706;2023-02-24T05:49:30;30.37;;;14.93;;
16824;SDS011;8529;48.108;-1.706;2023-02-24T05:51:59;34.70;;;15.90;;
16824;SDS011;8529;48.108;-1.706;2023-02-24T05:54:32;36.77;;;16.07;;
16824;SDS011;8529;48.108;-1.706;2023-02-24T05:57:01;29.92;;;15.40;;
16824;SDS011;8529;48.108;-1.706;2023-02-24T05:59:29;29.52;;;15.18;;
16824;SDS011;8529;48.108;-1.706;2023-02-24T06:01:57;32.50;;;15.63;;
16824;SDS011;8529;48.108;-1.706;2023-02-24T06:04:28;32.03;;;15.50;;
16824;SDS011;8529;48.108;-1.706;2023-02-24T06:07:04;32.03;;;16.00;;
16824;SDS011;8529;48.108;-1.706;2023-02-24T06:09:37;36.27;;;15.27;;
16824;SDS011;8529;48.108;-1.706;2023-02-24T06:12:09;33.03;;;15.40;;
16824;SDS011;8529;48.108;-1.706;2023-02-24T06:14:38;30.30;;;15.40;;
16824;SDS011;8529;48.108;-1.706;2023-02-24T06:17:06;30.97;;;14.87;;
16824;SDS011;8529;48.108;-1.706;2023-02-24T06:19:34;34.93;;;17.33;;
16824;SDS011;8529;48.108;-1.706;2023-02-24T06:22:01;34.80;;;15.80;;
16824;SDS011;8529;48.108;-1.706;2023-02-24T06:24:31;32.13;;;15.30;;
16824;SDS011;8529;48.108;-1.706;2023-02-24T06:26:58;33.97;;;15.63;;
16824;SDS011;8529;48.108;-1.706;2023-02-24T06:29:29;32.63;;;15.63;;
16824;SDS011;8529;48.108;-1.706;2023-02-24T06:31:56;31.80;;;15.43;;
16824;SDS011;8529;48.108;-1.706;2023-02-24T06:34:23;33.50;;;15.17;;
16824;SDS011;8529;48.108;-1.706;2023-02-24T06:36:53;33.60;;;15.60;;
16824;SDS011;8529;48.108;-1.706;2023-02-24T06:39:21;31.63;;;14.03;;
16824;SDS011;8529;48.108;-1.706;2023-02-24T06:41:48;35.23;;;15.47;;
16824;SDS011;8529;48.108;-1.706;2023-02-24T06:44:17;34.33;;;15.27;;
16824;SDS011;8529;48.108;-1.706;2023-02-24T06:46:44;32.03;;;15.97;;
16824;SDS011;8529;48.108;-1.706;2023-02-24T06:49:11;35.80;;;16.27;;
16824;SDS011;8529;48.108;-1.706;2023-02-24T06:51:38;33.13;;;15.03;;
16824;SDS011;8529;48.108;-1.706;2023-02-24T06:54:08;31.58;;;14.82;;
16824;SDS011;8529;48.108;-1.706;2023-02-24T06:56:36;33.87;;;15.70;;
16824;SDS011;8529;48.108;-1.706;2023-02-24T06:59:06;33.30;;;15.73;;
16824;SDS011;8529;48.108;-1.706;2023-02-24T07:01:36;32.17;;;16.03;;
16824;SDS011;8529;48.108;-1.706;2023-02-24T07:04:09;31.70;;;14.70;;
16824;SDS011;8529;48.108;-1.706;2023-02-24T07:06:43;32.53;;;15.67;;
16824;SDS011;8529;48.108;-1.706;2023-02-24T07:09:15;34.33;;;15.07;;
16824;SDS011;8529;48.108;-1.706;2023-02-24T07:11:44;28.73;;;14.77;;
16824;SDS011;8529;48.108;-1.706;2023-02-24T07:14:16;35.67;;;15.07;;
16824;SDS011;8529;48.108;-1.706;2023-02-24T07:16:44;27.10;;;13.63;;
16824;SDS011;8529;48.108;-1.706;2023-02-24T07:19:11;27.93;;;14.40;;
16824;SDS011;8529;48.108;-1.706;2023-02-24T07:21:41;32.53;;;14.97;;
16824;SDS011;8529;48.108;-1.706;2023-02-24T07:24:16;34.47;;;15.10;;
16824;SDS011;8529;48.108;-1.706;2023-02-24T07:26:53;35.40;;;15.73;;
16824;SDS011;8529;48.108;-1.706;2023-02-24T07:29:21;34.13;;;16.00;;
16824;SDS011;8529;48.108;-1.706;2023-02-24T07:31:49;32.90;;;15.23;;
16824;SDS011;8529;48.108;-1.706;2023-02-24T07:34:20;37.30;;;15.80;;
16824;SDS011;8529;48.108;-1.706;2023-02-24T07:36:49;32.03;;;16.00;;
16824;SDS011;8529;48.108;-1.706;2023-02-24T07:39:18;31.40;;;15.47;;
16824;SDS011;8529;48.108;-1.706;2023-02-24T07:41:47;26.25;;;13.48;;
16824;SDS011;8529;48.108;-1.706;2023-02-24T07:44:15;34.63;;;15.73;;
16824;SDS011;8529;48.108;-1.706;2023-02-24T07:46:43;30.20;;;14.23;;
16824;SDS011;8529;48.108;-1.706;2023-02-24T07:49:13;33.60;;;16.13;;
16824;SDS011;8529;48.108;-1.706;2023-02-24T07:51:44;29.30;;;14.20;;
16824;SDS011;8529;48.108;-1.706;2023-02-24T07:54:16;38.03;;;15.20;;
16824;SDS011;8529;48.108;-1.706;2023-02-24T07:56:46;31.00;;;14.83;;
16824;SDS011;8529;48.108;-1.706;2023-02-24T07:59:20;39.97;;;16.10;;
16824;SDS011;8529;48.108;-1.706;2023-02-24T08:01:48;37.20;;;15.93;;
16824;SDS011;8529;48.108;-1.706;2023-02-24T08:04:16;33.43;;;15.17;;
16824;SDS011;8529;48.108;-1.706;2023-02-24T08:06:47;31.43;;;15.03;;
16824;SDS011;8529;48.108;-1.706;2023-02-24T08:09:22;31.37;;;14.70;;
16824;SDS011;8529;48.108;-1.706;2023-02-24T08:12:04;33.73;;;13.80;;
16824;SDS011;8529;48.108;-1.706;2023-02-24T08:14:32;31.23;;;14.67;;
16824;SDS011;8529;48.108;-1.706;2023-02-24T08:17:08;32.50;;;14.63;;
16824;SDS011;8529;48.108;-1.706;2023-02-24T08:19:42;34.40;;;14.20;;
16824;SDS011;8529;48.108;-1.706;2023-02-24T08:22:11;25.17;;;13.13;;
16824;SDS011;8529;48.108;-1.706;2023-02-24T08:24:54;32.47;;;14.10;;
16824;SDS011;8529;48.108;-1.706;2023-02-24T08:27:25;33.67;;;15.20;;
16824;SDS011;8529;48.108;-1.706;2023-02-24T08:29:55;33.27;;;14.50;;
16824;SDS011;8529;48.108;-1.706;2023-02-24T08:32:24;29.67;;;14.17;;
16824;SDS011;8529;48.108;-1.706;2023-02-24T08:34:57;29.60;;;13.67;;
16824;SDS011;8529;48.108;-1.706;2023-02-24T08:37:27;32.30;;;13.93;;
16824;SDS011;8529;48.108;-1.706;2023-02-24T08:40:05;27.90;;;12.73;;
16824;SDS011;8529;48.108;-1.706;2023-02-24T08:42:53;28.77;;;13.20;;
16824;SDS011;8529;48.108;-1.706;2023-02-24T08:45:22;28.43;;;13.27;;
16824;SDS011;8529;48.108;-1.706;2023-02-24T08:47:50;30.23;;;13.80;;
16824;SDS011;8529;48.108;-1.706;2023-02-24T08:50:24;28.63;;;13.17;;
16824;SDS011;8529;48.108;-1.706;2023-02-24T08:52:55;33.87;;;13.60;;
16824;SDS011;8529;48.108;-1.706;2023-02-24T08:55:23;31.30;;;14.57;;
16824;SDS011;8529;48.108;-1.706;2023-02-24T08:57:54;31.33;;;14.23;;
16824;SDS011;8529;48.108;-1.706;2023-02-24T09:00:25;34.77;;;14.50;;
16824;SDS011;8529;48.108;-1.706;2023-02-24T09:03:12;25.17;;;12.27;;
16824;SDS011;8529;48.108;-1.706;2023-02-24T09:05:54;40.83;;;17.93;;
16824;SDS011;8529;48.108;-1.706;2023-02-24T09:08:22;25.20;;;12.13;;
16824;SDS011;8529;48.108;-1.706;2023-02-24T09:10:58;22.60;;;12.00;;
16824;SDS011;8529;48.108;-1.706;2023-02-24T09:13:25;29.27;;;12.90;;
16824;SDS011;8529;48.108;-1.706;2023-02-24T09:15:57;28.20;;;12.83;;
16824;SDS011;8529;48.108;-1.706;2023-02-24T09:18:26;27.10;;;11.30;;
16824;SDS011;8529;48.108;-1.706;2023-02-24T09:21:11;29.07;;;12.63;;
16824;SDS011;8529;48.108;-1.706;2023-02-24T09:24:14;25.00;;;12.40;;
16824;SDS011;8529;48.108;-1.706;2023-02-24T09:26:52;26.40;;;12.05;;
16824;SDS011;8529;48.108;-1.706;2023-02-24T09:29:22;29.58;;;13.20;;
16824;SDS011;8529;48.108;-1.706;2023-02-24T09:31:59;26.58;;;12.10;;
16824;SDS011;8529;48.108;-1.706;2023-02-24T09:34:30;23.80;;;11.70;;
16824;SDS011;8529;48.108;-1.706;2023-02-24T09:36:58;18.33;;;9.88;;
16824;SDS011;8529;48.108;-1.706;2023-02-24T09:39:48;23.85;;;11.07;;
16824;SDS011;8529;48.108;-1.706;2023-02-24T09:42:40;28.58;;;10.68;;
16824;SDS011;8529;48.108;-1.706;2023-02-24T09:45:22;20.92;;;10.30;;
16824;SDS011;8529;48.108;-1.706;2023-02-24T09:47:57;23.45;;;9.30;;
16824;SDS011;8529;48.108;-1.706;2023-02-24T09:50:34;16.95;;;7.30;;
16824;SDS011;8529;48.108;-1.706;2023-02-24T09:53:12;12.23;;;6.00;;
16824;SDS011;8529;48.108;-1.706;2023-02-24T09:55:43;22.17;;;10.10;;
16824;SDS011;8529;48.108;-1.706;2023-02-24T09:58:36;9.88;;;5.85;;
16824;SDS011;8529;48.108;-1.706;2023-02-24T10:04:11;30.00;;;10.98;;
16824;SDS011;8529;48.108;-1.706;2023-02-24T10:07:02;15.60;;;7.28;;
16824;SDS011;8529;48.108;-1.706;2023-02-24T10:09:33;24.02;;;7.90;;
16824;SDS011;8529;48.108;-1.706;2023-02-24T10:12:05;39.40;;;14.45;;
16824;SDS011;8529;48.108;-1.706;2023-02-24T10:14:40;16.45;;;8.55;;
16824;SDS011;8529;48.108;-1.706;2023-02-24T10:17:13;17.83;;;7.20;;
16824;SDS011;8529;48.108;-1.706;2023-02-24T10:19:55;10.73;;;5.10;;
16824;SDS011;8529;48.108;-1.706;2023-02-24T10:22:39;10.98;;;4.53;;
16824;SDS011;8529;48.108;-1.706;2023-02-24T10:28:18;14.00;;;6.00;;
16824;SDS011;8529;48.108;-1.706;2023-02-24T10:31:02;13.00;;;6.28;;
16824;SDS011;8529;48.108;-1.706;2023-02-24T10:33:49;12.07;;;5.60;;
16824;SDS011;8529;48.108;-1.706;2023-02-24T10:36:20;8.23;;;4.22;;
16824;SDS011;8529;48.108;-1.706;2023-02-24T10:38:54;10.88;;;5.43;;
16824;SDS011;8529;48.108;-1.706;2023-02-24T10:41:22;18.40;;;7.45;;
16824;SDS011;8529;48.108;-1.706;2023-02-24T10:43:53;15.93;;;7.05;;
16824;SDS011;8529;48.108;-1.706;2023-02-24T10:46:24;12.35;;;4.93;;
16824;SDS011;8529;48.108;-1.706;2023-02-24T10:48:57;33.47;;;14.25;;
16824;SDS011;8529;48.108;-1.706;2023-02-24T10:51:30;20.60;;;9.35;;
16824;SDS011;8529;48.108;-1.706;2023-02-24T10:54:03;43.28;;;14.98;;
16824;SDS011;8529;48.108;-1.706;2023-02-24T10:56:47;21.95;;;7.85;;
16824;SDS011;8529;48.108;-1.706;2023-02-24T10:59:40;14.80;;;5.55;;
16824;SDS011;8529;48.108;-1.706;2023-02-24T11:02:24;37.90;;;16.50;;
16824;SDS011;8529;48.108;-1.706;2023-02-24T11:04:57;13.63;;;7.07;;
16824;SDS011;8529;48.108;-1.706;2023-02-24T11:07:49;13.57;;;5.65;;
16824;SDS011;8529;48.108;-1.706;2023-02-24T11:10:20;14.18;;;5.18;;
16824;SDS011;8529;48.108;-1.706;2023-02-24T11:12:56;7.28;;;3.97;;
16824;SDS011;8529;48.108;-1.706;2023-02-24T11:15:44;27.88;;;10.98;;
16824;SDS011;8529;48.108;-1.706;2023-02-24T11:18:32;18.00;;;8.10;;
16824;SDS011;8529;48.108;-1.706;2023-02-24T11:21:00;8.85;;;5.47;;
16824;SDS011;8529;48.108;-1.706;2023-02-24T11:23:32;9.65;;;5.60;;
16824;SDS011;8529;48.108;-1.706;2023-02-24T11:26:08;16.00;;;7.57;;
16824;SDS011;8529;48.108;-1.706;2023-02-24T11:28:54;10.73;;;5.72;;
16824;SDS011;8529;48.108;-1.706;2023-02-24T11:31:34;10.15;;;5.22;;
16824;SDS011;8529;48.108;-1.706;2023-02-24T11:34:17;8.50;;;4.65;;
16824;SDS011;8529;48.108;-1.706;2023-02-24T11:36:55;10.82;;;5.93;;
16824;SDS011;8529;48.108;-1.706;2023-02-24T11:39:38;23.90;;;9.93;;
16824;SDS011;8529;48.108;-1.706;2023-02-24T11:42:14;16.20;;;8.35;;
16824;SDS011;8529;48.108;-1.706;2023-02-24T11:44:48;10.70;;;4.53;;
16824;SDS011;8529;48.108;-1.706;2023-02-24T11:47:19;7.18;;;4.07;;
16824;SDS011;8529;48.108;-1.706;2023-02-24T11:49:54;7.75;;;3.90;;
16824;SDS011;8529;48.108;-1.706;2023-02-24T11:52:30;11.82;;;4.88;;
16824;SDS011;8529;48.108;-1.706;2023-02-24T11:55:02;21.08;;;8.48;;
16824;SDS011;8529;48.108;-1.706;2023-02-24T11:57:34;15.55;;;6.10;;
16824;SDS011;8529;48.108;-1.706;2023-02-24T12:00:06;9.68;;;5.18;;
16824;SDS011;8529;48.108;-1.706;2023-02-24T12:02:45;8.25;;;4.60;;
16824;SDS011;8529;48.108;-1.706;2023-02-24T12:05:19;7.50;;;4.03;;
16824;SDS011;8529;48.108;-1.706;2023-02-24T12:07:49;11.52;;;6.07;;
16824;SDS011;8529;48.108;-1.706;2023-02-24T12:10:20;11.27;;;5.57;;
16824;SDS011;8529;48.108;-1.706;2023-02-24T12:12:53;12.45;;;6.40;;
16824;SDS011;8529;48.108;-1.706;2023-02-24T12:15:27;8.80;;;4.47;;
16824;SDS011;8529;48.108;-1.706;2023-02-24T12:17:59;15.23;;;6.43;;
16824;SDS011;8529;48.108;-1.706;2023-02-24T12:20:35;10.77;;;5.00;;
16824;SDS011;8529;48.108;-1.706;2023-02-24T12:23:11;8.23;;;4.40;;
16824;SDS011;8529;48.108;-1.706;2023-02-24T12:25:46;11.38;;;5.63;;
16824;SDS011;8529;48.108;-1.706;2023-02-24T12:28:37;10.75;;;5.78;;
16824;SDS011;8529;48.108;-1.706;2023-02-24T12:31:17;10.25;;;4.70;;
16824;SDS011;8529;48.108;-1.706;2023-02-24T12:33:52;16.05;;;6.53;;
16824;SDS011;8529;48.108;-1.706;2023-02-24T12:36:34;8.77;;;5.90;;
16824;SDS011;8529;48.108;-1.706;2023-02-24T12:39:26;8.10;;;3.75;;
16824;SDS011;8529;48.108;-1.706;2023-02-24T12:42:05;8.63;;;4.65;;
16824;SDS011;8529;48.108;-1.706;2023-02-24T12:44:40;9.77;;;4.55;;
16824;SDS011;8529;48.108;-1.706;2023-02-24T12:47:15;11.43;;;4.70;;
16824;SDS011;8529;48.108;-1.706;2023-02-24T12:49:57;9.13;;;5.05;;
16824;SDS011;8529;48.108;-1.706;2023-02-24T12:52:50;11.85;;;6.15;;
16824;SDS011;8529;48.108;-1.706;2023-02-24T12:55:22;13.20;;;7.20;;
16824;SDS011;8529;48.108;-1.706;2023-02-24T12:57:57;20.48;;;9.93;;
16824;SDS011;8529;48.108;-1.706;2023-02-24T13:00:34;29.38;;;12.50;;
16824;SDS011;8529;48.108;-1.706;2023-02-24T13:03:11;10.52;;;4.63;;
16824;SDS011;8529;48.108;-1.706;2023-02-24T13:05:49;10.40;;;5.90;;
16824;SDS011;8529;48.108;-1.706;2023-02-24T13:08:23;10.93;;;5.10;;
16824;SDS011;8529;48.108;-1.706;2023-02-24T13:11:02;9.10;;;4.28;;
16824;SDS011;8529;48.108;-1.706;2023-02-24T13:13:38;25.58;;;10.93;;
16824;SDS011;8529;48.108;-1.706;2023-02-24T13:16:10;13.35;;;5.15;;
16824;SDS011;8529;48.108;-1.706;2023-02-24T13:18:37;9.63;;;4.68;;
16824;SDS011;8529;48.108;-1.706;2023-02-24T13:21:06;11.88;;;4.38;;
16824;SDS011;8529;48.108;-1.706;2023-02-24T13:23:39;9.63;;;4.13;;
16824;SDS011;8529;48.108;-1.706;2023-02-24T13:26:07;10.70;;;4.78;;
16824;SDS011;8529;48.108;-1.706;2023-02-24T13:28:35;11.65;;;4.70;;
16824;SDS011;8529;48.108;-1.706;2023-02-24T13:31:03;9.63;;;4.50;;
16824;SDS011;8529;48.108;-1.706;2023-02-24T13:33:32;10.70;;;4.45;;
16824;SDS011;8529;48.108;-1.706;2023-02-24T13:36:05;14.75;;;7.53;;
16824;SDS011;8529;48.108;-1.706;2023-02-24T13:38:36;11.43;;;6.15;;
16824;SDS011;8529;48.108;-1.706;2023-02-24T13:41:07;12.88;;;5.38;;
16824;SDS011;8529;48.108;-1.706;2023-02-24T13:43:52;9.27;;;3.95;;
16824;SDS011;8529;48.108;-1.706;2023-02-24T13:46:20;9.18;;;4.53;;
16824;SDS011;8529;48.108;-1.706;2023-02-24T13:48:50;7.68;;;4.00;;
16824;SDS011;8529;48.108;-1.706;2023-02-24T13:51:32;10.20;;;5.38;;
16824;SDS011;8529;48.108;-1.706;2023-02-24T13:54:20;7.65;;;4.40;;
16824;SDS011;8529;48.108;-1.706;2023-02-24T13:56:59;10.93;;;5.03;;
16824;SDS011;8529;48.108;-1.706;2023-02-24T13:59:38;12.23;;;6.03;;
16824;SDS011;8529;48.108;-1.706;2023-02-24T14:02:16;12.82;;;6.90;;
16824;SDS011;8529;48.108;-1.706;2023-02-24T14:04:46;10.10;;;5.78;;
16824;SDS011;8529;48.108;-1.706;2023-02-24T14:07:18;10.50;;;4.47;;
16824;SDS011;8529;48.108;-1.706;2023-02-24T14:09:49;14.65;;;6.47;;
16824;SDS011;8529;48.108;-1.706;2023-02-24T14:12:18;10.18;;;4.45;;
16824;SDS011;8529;48.108;-1.706;2023-02-24T14:14:48;8.15;;;4.78;;
16824;SDS011;8529;48.108;-1.706;2023-02-24T14:17:19;8.13;;;4.50;;
16824;SDS011;8529;48.108;-1.706;2023-02-24T14:19:48;10.73;;;4.20;;
16824;SDS011;8529;48.108;-1.706;2023-02-24T14:22:16;9.52;;;4.72;;
16824;SDS011;8529;48.108;-1.706;2023-02-24T14:24:45;14.48;;;5.00;;
16824;SDS011;8529;48.108;-1.706;2023-02-24T14:27:15;6.53;;;4.78;;
16824;SDS011;8529;48.108;-1.706;2023-02-24T14:29:47;9.50;;;3.65;;
16824;SDS011;8529;48.108;-1.706;2023-02-24T14:32:18;12.60;;;4.45;;
16824;SDS011;8529;48.108;-1.706;2023-02-24T14:34:47;9.43;;;4.20;;
16824;SDS011;8529;48.108;-1.706;2023-02-24T14:37:14;9.18;;;4.57;;
16824;SDS011;8529;48.108;-1.706;2023-02-24T14:39:48;9.18;;;4.50;;
16824;SDS011;8529;48.108;-1.706;2023-02-24T14:42:18;14.75;;;5.63;;
16824;SDS011;8529;48.108;-1.706;2023-02-24T14:44:47;8.43;;;5.07;;
16824;SDS011;8529;48.108;-1.706;2023-02-24T14:47:16;9.25;;;5.10;;
16824;SDS011;8529;48.108;-1.706;2023-02-24T14:49:51;8.48;;;4.53;;
16824;SDS011;8529;48.108;-1.706;2023-02-24T14:52:23;8.48;;;4.63;;
16824;SDS011;8529;48.108;-1.706;2023-02-24T14:54:56;11.35;;;5.20;;
16824;SDS011;8529;48.108;-1.706;2023-02-24T14:57:28;10.45;;;5.72;;
16824;SDS011;8529;48.108;-1.706;2023-02-24T14:59:58;10.10;;;5.07;;
16824;SDS011;8529;48.108;-1.706;2023-02-24T15:02:35;8.43;;;5.00;;
16824;SDS011;8529;48.108;-1.706;2023-02-24T15:05:05;9.43;;;3.65;;
16824;SDS011;8529;48.108;-1.706;2023-02-24T15:07:33;9.55;;;4.10;;
16824;SDS011;8529;48.108;-1.706;2023-02-24T15:10:01;13.98;;;5.72;;
16824;SDS011;8529;48.108;-1.706;2023-02-24T15:12:32;8.85;;;4.43;;